createdAt,value
2022-10-08T00:00:50.756Z,12.57
2022-10-08T00:03:18.723Z,12.62
2022-10-08T00:05:56.308Z,12.73
2022-10-08T00:08:23.805Z,12.69
2022-10-08T00:10:55.868Z,12.57
2022-10-08T00:13:24.905Z,12.43
2022-10-08T00:15:51.973Z,12.36
2022-10-08T00:18:20.342Z,12.33
2022-10-08T00:20:47.935Z,12.22
2022-10-08T00:23:17.016Z,12.12
2022-10-08T00:25:45.073Z,12.02
2022-10-08T00:28:13.891Z,11.98
2022-10-08T00:30:41.981Z,11.98
2022-10-08T00:33:10.255Z,12.01
2022-10-08T00:35:40.793Z,12.02
2022-10-08T00:38:07.732Z,12.06
2022-10-08T00:40:44.909Z,12.11
2022-10-08T00:43:16.370Z,12.15
2022-10-08T00:45:46.270Z,12.20
2022-10-08T00:48:21.068Z,12.28
2022-10-08T00:50:48.066Z,12.30
2022-10-08T00:53:15.015Z,12.41
2022-10-08T00:55:43.798Z,12.56
2022-10-08T00:58:23.115Z,12.74
2022-10-08T01:00:50.384Z,12.91
2022-10-08T01:03:17.033Z,13.04
2022-10-08T01:05:58.876Z,13.10
2022-10-08T01:08:46.751Z,13.10
2022-10-08T01:11:30.078Z,13.06
2022-10-08T01:14:01.675Z,12.99
2022-10-08T01:16:39.772Z,13.03
2022-10-08T01:19:40.587Z,13.14
2022-10-08T01:22:31.635Z,13.21
2022-10-08T01:25:34.295Z,13.30
2022-10-08T01:28:03.693Z,13.37
2022-10-08T01:30:34.546Z,13.30
2022-10-08T01:33:13.241Z,13.26
2022-10-08T01:35:46.534Z,13.24
2022-10-08T01:38:19.306Z,13.20
2022-10-08T01:40:48.151Z,13.13
2022-10-08T01:43:18.844Z,13.01
2022-10-08T01:45:57.150Z,13.00
2022-10-08T01:48:29.126Z,12.96
2022-10-08T01:51:03.374Z,12.93
2022-10-08T01:53:34.622Z,12.96
2022-10-08T01:56:04.429Z,13.08
2022-10-08T01:59:19.290Z,13.15
2022-10-08T02:02:10.910Z,13.21
2022-10-08T02:04:37.929Z,13.18
2022-10-08T02:07:18.409Z,13.23
2022-10-08T02:09:51.485Z,13.30
2022-10-08T02:12:20.026Z,13.16
2022-10-08T02:14:58.482Z,13.11
2022-10-08T02:17:25.089Z,13.16
2022-10-08T02:19:57.094Z,13.10
2022-10-08T02:22:30.704Z,13.26
2022-10-08T02:25:05.495Z,13.27
2022-10-08T02:27:52.491Z,13.28
2022-10-08T02:30:19.692Z,13.25
2022-10-08T02:32:51.753Z,13.23
2022-10-08T02:35:27.481Z,13.21
2022-10-08T02:38:05.398Z,13.17
2022-10-08T02:40:34.612Z,13.19
2022-10-08T02:43:08.499Z,13.18
2022-10-08T02:45:51.204Z,13.11
2022-10-08T02:48:26.458Z,13.15
2022-10-08T02:50:56.038Z,13.12
2022-10-08T02:53:24.845Z,13.11
2022-10-08T02:56:16.651Z,13.07
2022-10-08T02:58:44.265Z,13.05
2022-10-08T03:01:26.856Z,13.03
2022-10-08T03:04:17.743Z,13.00
2022-10-08T03:06:45.842Z,12.98
2022-10-08T03:09:15.135Z,13.00
2022-10-08T03:11:42.516Z,13.03
2022-10-08T03:14:12.464Z,12.93
2022-10-08T03:16:44.207Z,12.89
2022-10-08T03:19:13.993Z,12.87
2022-10-08T03:21:43.142Z,12.83
2022-10-08T03:24:11.516Z,12.85
2022-10-08T03:26:39.229Z,12.79
2022-10-08T03:29:06.084Z,12.66
2022-10-08T03:31:33.056Z,12.53
2022-10-08T03:33:59.707Z,12.51
2022-10-08T03:36:27.086Z,12.46
2022-10-08T03:38:53.709Z,12.41
2022-10-08T03:41:20.808Z,12.36
2022-10-08T03:43:47.549Z,12.36
2022-10-08T03:46:15.485Z,12.37
2022-10-08T03:48:42.969Z,12.35
2022-10-08T03:51:14.469Z,12.34
2022-10-08T03:53:42.901Z,12.31
2022-10-08T03:56:12.775Z,12.37
2022-10-08T03:58:39.747Z,12.32
2022-10-08T04:01:17.280Z,12.30
2022-10-08T04:03:47.727Z,12.22
2022-10-08T04:06:14.824Z,12.15
2022-10-08T04:08:41.706Z,12.12
2022-10-08T04:11:11.275Z,12.00
2022-10-08T04:13:38.529Z,11.98
2022-10-08T04:16:08.206Z,11.91
2022-10-08T04:18:35.460Z,11.92
2022-10-08T04:21:06.199Z,12.01
2022-10-08T04:23:35.501Z,11.95
2022-10-08T04:26:02.861Z,11.92
2022-10-08T04:28:33.860Z,11.96
2022-10-08T04:31:08.009Z,12.02
2022-10-08T04:33:35.669Z,12.00
2022-10-08T04:36:07.507Z,11.94
2022-10-08T04:38:34.061Z,11.99
2022-10-08T04:41:05.003Z,12.00
2022-10-08T04:43:31.614Z,11.99
2022-10-08T04:45:58.375Z,11.98
2022-10-08T04:48:24.968Z,12.02
2022-10-08T04:51:05.783Z,12.03
2022-10-08T04:53:35.121Z,12.10
2022-10-08T04:56:11.035Z,12.25
2022-10-08T04:58:37.702Z,12.18
2022-10-08T05:01:09.294Z,12.07
2022-10-08T05:03:40.610Z,12.14
2022-10-08T05:06:07.967Z,12.12
2022-10-08T05:08:34.890Z,12.05
2022-10-08T05:11:01.581Z,11.90
2022-10-08T05:13:28.493Z,11.86
2022-10-08T05:15:55.269Z,11.84
2022-10-08T05:18:22.848Z,11.71
2022-10-08T05:20:49.548Z,11.75
2022-10-08T05:23:16.055Z,11.74
2022-10-08T05:25:42.944Z,11.64
2022-10-08T05:28:09.652Z,11.51
2022-10-08T05:30:36.446Z,11.41
2022-10-08T05:33:03.112Z,11.38
2022-10-08T05:35:29.863Z,11.27
2022-10-08T05:37:56.511Z,11.21
2022-10-08T05:40:24.338Z,11.22
2022-10-08T05:42:51.116Z,11.20
2022-10-08T05:45:17.809Z,11.23
2022-10-08T05:47:44.540Z,11.30
2022-10-08T05:50:11.280Z,11.34
2022-10-08T05:52:37.842Z,11.49
2022-10-08T05:55:04.762Z,11.55
2022-10-08T05:57:31.443Z,11.52
2022-10-08T05:59:58.263Z,11.56
2022-10-08T06:02:24.938Z,11.61
2022-10-08T06:04:52.026Z,11.68
2022-10-08T06:07:18.697Z,11.78
2022-10-08T06:09:45.442Z,11.83
2022-10-08T06:12:14.026Z,11.87
2022-10-08T06:14:41.143Z,11.96
2022-10-08T06:17:07.854Z,11.97
2022-10-08T06:19:37.713Z,11.97
2022-10-08T06:22:05.103Z,12.07
2022-10-08T06:24:31.943Z,12.17
2022-10-08T06:26:58.734Z,12.13
2022-10-08T06:29:25.307Z,12.15
2022-10-08T06:31:52.447Z,12.27
2022-10-08T06:34:19.169Z,12.29
2022-10-08T06:36:45.848Z,12.40
2022-10-08T06:39:15.449Z,12.37
2022-10-08T06:41:42.725Z,12.38
2022-10-08T06:44:14.442Z,12.49
2022-10-08T06:46:41.962Z,12.50
2022-10-08T06:49:10.936Z,12.50
2022-10-08T06:51:37.918Z,12.61
2022-10-08T06:54:07.933Z,12.65
2022-10-08T06:56:36.487Z,12.73
2022-10-08T06:59:04.101Z,12.82
2022-10-08T07:01:33.775Z,13.08
2022-10-08T07:04:01.807Z,13.25
2022-10-08T07:06:29.034Z,13.28
2022-10-08T07:08:58.186Z,13.34
2022-10-08T07:11:25.789Z,13.37
2022-10-08T07:13:53.845Z,13.38
2022-10-08T07:16:22.529Z,13.41
2022-10-08T07:18:51.269Z,13.42
2022-10-08T07:21:19.558Z,13.47
2022-10-08T07:23:46.273Z,13.69
2022-10-08T07:26:17.173Z,13.88
2022-10-08T07:28:51.549Z,14.08
2022-10-08T07:31:20.940Z,14.33
2022-10-08T07:33:48.027Z,14.57
2022-10-08T07:36:20.224Z,14.56
2022-10-08T07:38:48.203Z,14.76
2022-10-08T07:41:15.165Z,14.99
2022-10-08T07:43:41.854Z,14.97
2022-10-08T07:46:10.840Z,14.68
2022-10-08T07:48:38.644Z,14.61
2022-10-08T07:51:09.176Z,15.13
2022-10-08T07:53:36.739Z,15.53
2022-10-08T07:56:04.830Z,15.87
2022-10-08T07:58:31.674Z,16.00
2022-10-08T08:01:00.272Z,16.09
2022-10-08T08:03:26.931Z,16.30
2022-10-08T08:05:54.546Z,16.36
2022-10-08T08:08:24.942Z,16.25
2022-10-08T08:10:59.329Z,16.35
2022-10-08T08:13:26.927Z,16.51
2022-10-08T08:16:01.000Z,16.60
2022-10-08T08:18:32.534Z,16.44
2022-10-08T08:21:05.820Z,16.06
2022-10-08T08:23:34.545Z,15.86
2022-10-08T08:26:07.317Z,15.40
2022-10-08T08:28:34.400Z,15.32
2022-10-08T08:31:08.404Z,15.27
2022-10-08T08:33:35.269Z,15.14
2022-10-08T08:36:01.966Z,15.22
2022-10-08T08:38:28.679Z,15.60
2022-10-08T08:40:57.634Z,16.31
2022-10-08T08:43:25.391Z,16.65
2022-10-08T08:45:52.184Z,17.22
2022-10-08T08:48:26.531Z,17.51
2022-10-08T08:50:57.062Z,17.38
2022-10-08T08:53:23.877Z,17.41
2022-10-08T08:55:56.939Z,17.49
2022-10-08T08:58:48.527Z,17.74
2022-10-08T09:01:37.384Z,18.13
2022-10-08T09:04:11.563Z,17.88
2022-10-08T09:06:40.087Z,18.08
2022-10-08T09:09:22.565Z,18.18
2022-10-08T09:11:49.503Z,18.49
2022-10-08T09:14:36.290Z,18.63
2022-10-08T09:17:17.828Z,18.80
2022-10-08T09:19:45.060Z,18.70
2022-10-08T09:22:35.682Z,19.01
2022-10-08T09:25:07.669Z,19.46
2022-10-08T09:27:56.845Z,19.43
2022-10-08T09:30:27.663Z,19.24
2022-10-08T09:33:00.720Z,19.19
2022-10-08T09:35:27.540Z,18.66
2022-10-08T09:37:56.569Z,18.44
2022-10-08T09:40:26.322Z,17.83
2022-10-08T09:43:19.717Z,17.54
2022-10-08T09:45:49.068Z,17.53
2022-10-08T09:48:17.914Z,17.40
2022-10-08T09:50:55.271Z,17.04
2022-10-08T09:53:24.005Z,16.99
2022-10-08T09:55:55.421Z,17.24
2022-10-08T09:58:22.517Z,17.05
2022-10-08T10:01:02.746Z,17.23
2022-10-08T10:03:31.013Z,17.04
2022-10-08T10:05:59.338Z,16.95
2022-10-08T10:08:50.665Z,16.98
2022-10-08T10:11:27.818Z,16.91
2022-10-08T10:13:56.315Z,17.08
2022-10-08T10:16:34.162Z,17.21
2022-10-08T10:19:05.337Z,17.10
2022-10-08T10:22:09.806Z,16.87
2022-10-08T10:24:46.234Z,16.58
2022-10-08T10:27:19.210Z,16.44
2022-10-08T10:29:56.715Z,16.32
2022-10-08T10:32:33.932Z,16.12
2022-10-08T10:35:11.032Z,16.15
2022-10-08T10:37:45.299Z,15.87
2022-10-08T10:40:27.913Z,15.61
2022-10-08T10:43:15.338Z,15.48
2022-10-08T10:45:48.302Z,15.26
2022-10-08T10:48:15.259Z,15.32
2022-10-08T10:51:09.131Z,15.33
2022-10-08T10:53:53.492Z,15.29
2022-10-08T10:56:22.634Z,15.21
2022-10-08T10:59:26.167Z,15.39
2022-10-08T11:02:10.481Z,14.98
2022-10-08T11:05:05.565Z,15.08
2022-10-08T11:07:45.903Z,15.12
2022-10-08T11:10:32.506Z,14.91
2022-10-08T11:13:18.116Z,14.64
2022-10-08T11:15:52.873Z,14.50
2022-10-08T11:18:41.041Z,14.39
2022-10-08T11:21:23.842Z,14.33
2022-10-08T11:24:00.483Z,14.29
2022-10-08T11:26:45.916Z,14.48
2022-10-08T11:29:34.118Z,14.56
2022-10-08T11:32:02.207Z,14.45
2022-10-08T11:34:31.482Z,14.25
2022-10-08T11:37:27.644Z,14.18
2022-10-08T11:40:18.811Z,14.31
2022-10-08T11:42:57.107Z,14.36
2022-10-08T11:45:23.763Z,14.51
2022-10-08T11:47:55.676Z,14.26
2022-10-08T11:50:27.259Z,14.22
2022-10-08T11:52:58.342Z,14.19
2022-10-08T11:55:32.738Z,14.21
2022-10-08T11:58:09.767Z,14.30
2022-10-08T12:00:45.660Z,14.41
2022-10-08T12:03:27.416Z,14.54
2022-10-08T12:06:14.818Z,14.66
2022-10-08T12:08:55.783Z,14.75
2022-10-08T12:11:37.738Z,14.68
2022-10-08T12:14:13.620Z,14.47
2022-10-08T12:16:49.135Z,14.25
2022-10-08T12:19:34.471Z,14.24
2022-10-08T12:22:04.013Z,13.98
2022-10-08T12:24:39.787Z,13.62
2022-10-08T12:27:18.719Z,13.74
2022-10-08T12:29:56.870Z,13.84
2022-10-08T12:32:41.886Z,13.37
2022-10-08T12:35:31.738Z,12.95
2022-10-08T12:38:16.496Z,12.96
2022-10-08T12:40:48.398Z,13.06
2022-10-08T12:43:40.635Z,13.33
2022-10-08T12:46:18.281Z,13.47
2022-10-08T12:48:51.571Z,13.61
2022-10-08T12:51:40.489Z,13.84
2022-10-08T12:54:18.842Z,14.18
2022-10-08T12:56:45.978Z,14.49
2022-10-08T12:59:12.979Z,14.60
2022-10-08T13:01:42.725Z,14.80
2022-10-08T13:04:09.434Z,14.85
2022-10-08T13:06:36.194Z,14.98
2022-10-08T13:09:14.035Z,15.26
2022-10-08T13:11:42.396Z,15.18
2022-10-08T13:14:40.658Z,15.10
2022-10-08T13:17:26.659Z,14.95
2022-10-08T13:20:14.259Z,14.93
2022-10-08T13:22:41.068Z,15.16
2022-10-08T13:25:45.821Z,15.08
2022-10-08T13:28:15.599Z,15.30
2022-10-08T13:30:47.117Z,15.04
2022-10-08T13:33:22.203Z,14.90
2022-10-08T13:35:58.061Z,15.05
2022-10-08T13:38:31.160Z,15.03
2022-10-08T13:41:03.117Z,15.26
2022-10-08T13:43:30.676Z,15.42
2022-10-08T13:45:57.502Z,15.36
2022-10-08T13:48:24.561Z,15.16
2022-10-08T13:50:52.347Z,14.93
2022-10-08T13:53:24.829Z,14.90
2022-10-08T13:55:51.585Z,14.96
2022-10-08T13:58:20.302Z,15.10
2022-10-08T14:00:48.069Z,15.26
2022-10-08T14:03:15.448Z,15.26
2022-10-08T14:05:45.051Z,15.05
2022-10-08T14:08:23.648Z,14.93
2022-10-08T14:10:53.192Z,14.90
2022-10-08T14:13:19.777Z,14.70
2022-10-08T14:15:46.462Z,14.74
2022-10-08T14:18:13.684Z,14.73
2022-10-08T14:20:40.514Z,14.77
2022-10-08T14:23:07.221Z,14.87
2022-10-08T14:25:34.034Z,14.96
2022-10-08T14:28:01.243Z,14.92
2022-10-08T14:30:28.289Z,15.02
2022-10-08T14:32:55.402Z,15.01
2022-10-08T14:35:22.475Z,15.15
2022-10-08T14:37:49.745Z,15.19
2022-10-08T14:40:20.272Z,15.43
2022-10-08T14:42:47.737Z,15.49
2022-10-08T14:45:14.847Z,15.52
2022-10-08T14:47:42.061Z,15.61
2022-10-08T14:50:09.546Z,15.33
2022-10-08T14:52:43.251Z,15.20
2022-10-08T14:55:12.039Z,14.89
2022-10-08T14:57:38.745Z,14.79
2022-10-08T15:00:06.239Z,14.60
2022-10-08T15:02:34.557Z,14.42
2022-10-08T15:05:01.784Z,14.34
2022-10-08T15:07:28.912Z,13.62
2022-10-08T15:09:55.648Z,13.55
2022-10-08T15:12:22.390Z,13.26
2022-10-08T15:14:49.044Z,13.28
2022-10-08T15:17:15.765Z,13.34
2022-10-08T15:19:42.500Z,13.24
2022-10-08T15:22:09.172Z,13.13
2022-10-08T15:24:36.036Z,13.08
2022-10-08T15:27:02.696Z,13.08
2022-10-08T15:29:29.430Z,13.12
2022-10-08T15:31:56.074Z,12.97
2022-10-08T15:34:22.859Z,13.06
2022-10-08T15:36:49.511Z,13.09
2022-10-08T15:39:19.263Z,13.11
2022-10-08T15:41:51.679Z,13.15
2022-10-08T15:44:36.564Z,13.06
2022-10-08T15:47:06.310Z,13.02
2022-10-08T15:49:38.107Z,12.95
2022-10-08T15:52:07.720Z,12.89
2022-10-08T15:54:38.914Z,12.86
2022-10-08T15:57:07.701Z,12.82
2022-10-08T15:59:35.277Z,12.78
2022-10-08T16:02:02.355Z,12.80
2022-10-08T16:04:29.544Z,12.76
2022-10-08T16:06:56.270Z,12.79
2022-10-08T16:09:23.557Z,12.78
2022-10-08T16:11:51.476Z,12.75
2022-10-08T16:14:20.704Z,12.63
2022-10-08T16:16:47.792Z,12.50
2022-10-08T16:19:17.601Z,12.29
2022-10-08T16:21:46.540Z,12.21
2022-10-08T16:24:13.792Z,12.19
2022-10-08T16:26:41.172Z,12.12
2022-10-08T16:29:11.026Z,12.07
2022-10-08T16:31:38.517Z,12.11
2022-10-08T16:34:07.963Z,11.99
2022-10-08T16:36:36.808Z,11.90
2022-10-08T16:39:05.358Z,11.85
2022-10-08T16:41:33.855Z,11.81
2022-10-08T16:44:12.274Z,11.78
2022-10-08T16:46:41.277Z,11.66
2022-10-08T16:49:13.533Z,11.65
2022-10-08T16:51:40.711Z,11.62
2022-10-08T16:54:10.970Z,11.56
2022-10-08T16:56:39.800Z,11.55
2022-10-08T16:59:13.318Z,11.52
2022-10-08T17:01:45.221Z,11.46
2022-10-08T17:04:13.073Z,11.40
2022-10-08T17:06:40.096Z,11.38
2022-10-08T17:09:07.251Z,11.34
2022-10-08T17:11:35.119Z,11.37
2022-10-08T17:14:02.093Z,11.33
2022-10-08T17:16:30.473Z,11.41
2022-10-08T17:18:59.302Z,11.32
2022-10-08T17:21:26.491Z,11.37
2022-10-08T17:23:53.705Z,11.34
2022-10-08T17:26:22.898Z,11.21
2022-10-08T17:28:51.078Z,11.18
2022-10-08T17:31:20.434Z,11.09
2022-10-08T17:33:47.342Z,11.04
2022-10-08T17:36:26.150Z,11.03
2022-10-08T17:38:56.261Z,11.03
2022-10-08T17:41:22.877Z,11.01
2022-10-08T17:43:50.462Z,10.98
2022-10-08T17:46:25.870Z,10.93
2022-10-08T17:48:53.134Z,10.91
2022-10-08T17:51:22.389Z,10.84
2022-10-08T17:53:53.829Z,10.83
2022-10-08T17:56:21.547Z,10.79
2022-10-08T17:58:48.975Z,10.76
2022-10-08T18:01:21.019Z,10.72
2022-10-08T18:03:56.110Z,10.67
2022-10-08T18:06:23.574Z,10.67
2022-10-08T18:08:55.333Z,10.65
2022-10-08T18:11:22.269Z,10.65
2022-10-08T18:13:48.928Z,10.57
2022-10-08T18:16:17.639Z,10.57
2022-10-08T18:18:45.071Z,10.56
2022-10-08T18:21:13.575Z,10.56
2022-10-08T18:23:42.993Z,10.50
2022-10-08T18:26:11.232Z,10.44
2022-10-08T18:28:38.624Z,10.43
2022-10-08T18:31:07.073Z,10.37
2022-10-08T18:33:35.385Z,10.24
2022-10-08T18:36:14.572Z,10.19
2022-10-08T18:38:42.831Z,10.04
2022-10-08T18:41:20.611Z,9.92
2022-10-08T18:43:49.366Z,9.76
2022-10-08T18:46:19.697Z,9.66
2022-10-08T18:48:47.069Z,9.71
2022-10-08T18:51:19.983Z,9.75
2022-10-08T18:53:48.816Z,9.71
2022-10-08T18:56:18.510Z,9.75
2022-10-08T18:58:45.893Z,9.78
2022-10-08T19:01:18.577Z,9.79
2022-10-08T19:03:50.199Z,9.79
2022-10-08T19:06:18.798Z,9.78
2022-10-08T19:08:45.903Z,9.70
2022-10-08T19:11:17.977Z,9.68
2022-10-08T19:13:44.767Z,9.62
2022-10-08T19:16:15.457Z,9.56
2022-10-08T19:18:53.631Z,9.50
2022-10-08T19:21:21.000Z,9.44
2022-10-08T19:23:47.593Z,9.44
2022-10-08T19:26:14.605Z,9.38
2022-10-08T19:28:49.471Z,9.39
2022-10-08T19:31:27.404Z,9.34
2022-10-08T19:33:57.143Z,9.36
2022-10-08T19:36:25.581Z,9.27
2022-10-08T19:39:00.225Z,9.29
2022-10-08T19:41:27.957Z,9.30
2022-10-08T19:43:56.347Z,9.29
2022-10-08T19:46:24.188Z,9.29
2022-10-08T19:48:53.016Z,9.21
2022-10-08T19:51:20.420Z,9.18
2022-10-08T19:53:47.765Z,9.12
2022-10-08T19:56:15.343Z,9.13
2022-10-08T19:58:48.228Z,9.12
2022-10-08T20:01:20.995Z,9.13
2022-10-08T20:03:48.425Z,9.15
2022-10-08T20:06:23.233Z,9.04
2022-10-08T20:08:53.620Z,8.97
2022-10-08T20:11:20.543Z,8.95
2022-10-08T20:13:48.495Z,8.90
2022-10-08T20:16:23.698Z,8.92
2022-10-08T20:19:01.731Z,8.90
2022-10-08T20:21:30.864Z,8.89
2022-10-08T20:23:57.801Z,8.86
2022-10-08T20:26:27.619Z,8.85
2022-10-08T20:28:57.969Z,8.88
2022-10-08T20:31:27.529Z,8.85
2022-10-08T20:34:03.417Z,8.87
2022-10-08T20:36:31.183Z,8.88
2022-10-08T20:38:58.551Z,8.84
2022-10-08T20:41:30.698Z,8.81
2022-10-08T20:44:03.076Z,8.77
2022-10-08T20:46:30.806Z,8.78
2022-10-08T20:48:57.894Z,8.75
2022-10-08T20:51:26.548Z,8.75
2022-10-08T20:53:58.657Z,8.76
2022-10-08T20:56:26.316Z,8.75
2022-10-08T20:58:53.387Z,8.77
2022-10-08T21:01:25.284Z,8.83
2022-10-08T21:03:52.975Z,8.84
2022-10-08T21:06:30.530Z,8.75
2022-10-08T21:08:59.135Z,8.65
2022-10-08T21:11:28.091Z,8.57
2022-10-08T21:13:55.212Z,8.58
2022-10-08T21:16:27.253Z,8.58
2022-10-08T21:18:59.680Z,8.57
2022-10-08T21:21:27.672Z,8.51
2022-10-08T21:23:54.280Z,8.53
2022-10-08T21:26:27.043Z,8.53
2022-10-08T21:28:57.673Z,8.46
2022-10-08T21:31:25.533Z,8.40
2022-10-08T21:33:52.966Z,8.39
2022-10-08T21:36:28.354Z,8.34
2022-10-08T21:38:55.276Z,8.29
2022-10-08T21:41:23.518Z,8.26
2022-10-08T21:43:56.722Z,8.23
2022-10-08T21:46:26.599Z,8.21
2022-10-08T21:49:07.666Z,8.20
2022-10-08T21:51:34.754Z,8.12
2022-10-08T21:54:03.415Z,8.06
2022-10-08T21:56:32.451Z,8.20
2022-10-08T21:59:01.077Z,8.18
2022-10-08T22:01:37.653Z,8.11
2022-10-08T22:04:10.404Z,8.02
2022-10-08T22:06:40.711Z,8.01
2022-10-08T22:09:10.900Z,7.95
2022-10-08T22:11:37.669Z,7.95
2022-10-08T22:14:04.311Z,8.02
2022-10-08T22:16:31.084Z,7.98
2022-10-08T22:18:58.326Z,8.03
2022-10-08T22:21:24.883Z,8.01
2022-10-08T22:23:52.337Z,8.06
2022-10-08T22:26:21.841Z,8.12
2022-10-08T22:28:49.354Z,8.06
2022-10-08T22:31:17.731Z,7.97
2022-10-08T22:33:44.571Z,7.97
2022-10-08T22:36:19.159Z,7.91
2022-10-08T22:38:46.441Z,7.86
2022-10-08T22:41:19.104Z,7.96
2022-10-08T22:43:45.692Z,7.89
2022-10-08T22:46:17.994Z,7.90
2022-10-08T22:48:45.248Z,8.00
2022-10-08T22:51:20.386Z,7.95
2022-10-08T22:53:47.331Z,7.92
2022-10-08T22:56:21.863Z,7.93
2022-10-08T22:58:49.612Z,7.89
2022-10-08T23:01:19.458Z,7.91
2022-10-08T23:03:46.701Z,7.88
2022-10-08T23:06:22.497Z,7.87
2022-10-08T23:08:53.608Z,7.80
2022-10-08T23:11:20.372Z,7.92
2022-10-08T23:13:50.313Z,7.80
2022-10-08T23:16:16.975Z,7.75
2022-10-08T23:18:45.558Z,7.77
2022-10-08T23:21:16.799Z,7.78
2022-10-08T23:23:48.145Z,7.80
2022-10-08T23:26:16.095Z,7.74
2022-10-08T23:28:43.831Z,7.74
2022-10-08T23:31:11.519Z,7.79
2022-10-08T23:33:40.050Z,7.91
2022-10-08T23:36:07.521Z,7.85
2022-10-08T23:38:35.862Z,7.82
2022-10-08T23:41:04.589Z,7.85
2022-10-08T23:43:36.049Z,7.78
2022-10-08T23:46:03.385Z,7.71
2022-10-08T23:48:29.934Z,7.63
2022-10-08T23:50:56.655Z,7.58
2022-10-08T23:53:23.413Z,7.49
2022-10-08T23:55:49.949Z,7.45
2022-10-08T23:58:17.969Z,7.48
